createdAt,value
2016-08-02T00:00:46.589Z,94.41
2016-08-02T00:01:47.047Z,93.55
2016-08-02T00:02:46.336Z,94.22
2016-08-02T00:03:46.694Z,94.6
2016-08-02T00:04:47.084Z,94.6
2016-08-02T00:05:46.982Z,95.36
2016-08-02T00:06:46.467Z,96.22
2016-08-02T00:07:46.891Z,95.36
2016-08-02T00:08:47.358Z,95.17
2016-08-02T00:09:47.418Z,95.36
2016-08-02T00:10:46.993Z,95.56
2016-08-02T00:11:47.206Z,94.6
2016-08-02T00:12:47.264Z,94.79
2016-08-02T00:13:47.100Z,93.07
2016-08-02T00:14:46.930Z,93.45
2016-08-02T00:15:46.888Z,94.22
2016-08-02T00:16:47.931Z,94.51
2016-08-02T00:17:47.517Z,94.31
2016-08-02T00:18:47.284Z,93.74
2016-08-02T00:20:46.809Z,94.22
2016-08-02T00:21:47.193Z,94.51
2016-08-02T00:22:47.518Z,94.31
2016-08-02T00:23:47.711Z,94.6
2016-08-02T00:24:46.994Z,94.41
2016-08-02T00:25:47.661Z,94.22
2016-08-02T00:26:47.429Z,93.65
2016-08-02T00:27:47.389Z,94.22
2016-08-02T00:28:48.060Z,95.46
2016-08-02T00:29:48.159Z,94.6
2016-08-02T00:30:47.388Z,95.65
2016-08-02T00:31:46.972Z,94.7
2016-08-02T00:32:48.114Z,94.79
2016-08-02T00:33:47.210Z,94.41
2016-08-02T00:34:48.632Z,93.84
2016-08-02T00:35:47.587Z,94.6
2016-08-02T00:36:47.781Z,93.74
2016-08-02T00:37:48.343Z,94.12
2016-08-02T00:38:47.102Z,94.6
2016-08-02T00:39:47.612Z,94.89
2016-08-02T00:40:48.037Z,94.6
2016-08-02T00:41:48.930Z,95.36
2016-08-02T00:42:47.256Z,94.12
2016-08-02T00:43:47.698Z,93.93
2016-08-02T00:44:47.426Z,93.84
2016-08-02T00:45:47.261Z,94.41
2016-08-02T00:46:48.379Z,94.6
2016-08-02T00:47:48.572Z,94.22
2016-08-02T00:48:47.471Z,94.7
2016-08-02T00:49:47.421Z,94.12
2016-08-02T00:50:47.592Z,94.22
2016-08-02T00:51:47.953Z,94.6
2016-08-02T00:52:47.761Z,94.31
2016-08-02T00:54:48.196Z,94.31
2016-08-02T00:55:47.693Z,95.17
2016-08-02T00:56:48.250Z,94.79
2016-08-02T00:57:48.402Z,94.6
2016-08-02T00:58:47.631Z,95.17
2016-08-02T00:59:48.173Z,95.56
2016-08-02T01:00:48.152Z,95.65
2016-08-02T01:01:48.043Z,95.36
2016-08-02T01:02:48.935Z,95.56
2016-08-02T01:03:47.506Z,94.7
2016-08-02T01:04:47.971Z,95.27
2016-08-02T01:05:48.977Z,95.07
2016-08-02T01:06:48.102Z,94.31
2016-08-02T01:07:48.841Z,95.36
2016-08-02T01:09:47.691Z,94.98
2016-08-02T01:10:48.563Z,94.41
2016-08-02T01:11:49.345Z,94.79
2016-08-02T01:12:47.983Z,95.17
2016-08-02T01:13:48.065Z,95.36
2016-08-02T01:14:47.981Z,94.41
2016-08-02T01:15:48.609Z,95.27
2016-08-02T01:16:48.518Z,94.98
2016-08-02T01:17:48.195Z,94.22
2016-08-02T01:18:48.548Z,94.98
2016-08-02T01:19:48.964Z,95.17
2016-08-02T01:20:47.950Z,94.51
2016-08-02T01:21:47.871Z,95.17
2016-08-02T01:22:48.141Z,95.07
2016-08-02T01:24:48.584Z,95.46
2016-08-02T01:25:50.234Z,95.27
2016-08-02T01:26:48.910Z,96.22
2016-08-02T01:27:48.510Z,96.03
2016-08-02T01:28:48.689Z,96.22
2016-08-02T01:29:48.635Z,95.07
2016-08-02T01:30:49.647Z,94.98
2016-08-02T01:31:48.509Z,95.27
2016-08-02T01:32:48.541Z,96.18
2016-08-02T01:33:49.111Z,95.56
2016-08-02T01:34:48.798Z,95.27
2016-08-02T01:35:48.395Z,94.79
2016-08-02T01:36:48.847Z,94.79
2016-08-02T01:37:49.748Z,95.27
2016-08-02T01:39:49.110Z,95.27
2016-08-02T01:40:49.121Z,95.32
2016-08-02T01:41:48.491Z,96.03
2016-08-02T01:42:49.840Z,95.94
2016-08-02T01:43:48.691Z,95.46
2016-08-02T01:44:48.708Z,95.65
2016-08-02T01:45:48.798Z,95.27
2016-08-02T01:46:49.704Z,94.98
2016-08-02T01:47:48.520Z,94.41
2016-08-02T01:48:48.622Z,94.31
2016-08-02T01:49:49.982Z,94.22
2016-08-02T01:50:49.010Z,94.7
2016-08-02T01:51:50.177Z,94.31
2016-08-02T01:52:49.714Z,94.41
2016-08-02T01:54:49.321Z,94.22
2016-08-02T01:55:49.715Z,94.02
2016-08-02T01:56:49.862Z,94.31
2016-08-02T01:57:50.022Z,94.22
2016-08-02T01:58:49.596Z,95.07
2016-08-02T01:59:49.519Z,95.46
2016-08-02T02:00:49.075Z,95.36
2016-08-02T02:01:49.448Z,95.17
2016-08-02T02:02:48.888Z,94.79
2016-08-02T02:03:49.555Z,95.46
2016-08-02T02:04:49.164Z,96.32
2016-08-02T02:05:49.055Z,96.8
2016-08-02T02:06:49.489Z,96.75
2016-08-02T02:07:49.980Z,96.84
2016-08-02T02:09:49.864Z,95.79
2016-08-02T02:10:50.132Z,96.03
2016-08-02T02:11:50.006Z,95.94
2016-08-02T02:12:49.864Z,94.89
2016-08-02T02:13:49.725Z,95.17
2016-08-02T02:14:49.967Z,96.99
2016-08-02T02:15:50.412Z,97.23
2016-08-02T02:16:50.198Z,97.8
2016-08-02T02:17:49.992Z,97.89
2016-08-02T02:18:49.990Z,97.61
2016-08-02T02:19:50.120Z,97.13
2016-08-02T02:20:49.863Z,97.52
2016-08-02T02:21:50.738Z,97.8
2016-08-02T02:22:50.704Z,97.61
2016-08-02T02:23:49.857Z,96.94
2016-08-02T02:24:50.084Z,96.03
2016-08-02T02:25:50.272Z,96.03
2016-08-02T02:26:49.998Z,95.36
2016-08-02T02:27:50.522Z,95.07
2016-08-02T02:28:50.361Z,94.79
2016-08-02T02:29:51.338Z,94.79
2016-08-02T02:30:49.884Z,95.46
2016-08-02T02:31:50.814Z,95.07
2016-08-02T02:32:51.232Z,95.75
2016-08-02T02:33:50.059Z,95.46
2016-08-02T02:34:50.590Z,96.03
2016-08-02T02:35:50.325Z,94.89
2016-08-02T02:36:50.936Z,95.46
2016-08-02T02:37:51.047Z,94.89
2016-08-02T02:38:50.620Z,95.27
2016-08-02T02:39:50.049Z,94.98
2016-08-02T02:40:51.040Z,95.36
2016-08-02T02:41:50.112Z,95.56
2016-08-02T02:42:49.935Z,96.22
2016-08-02T02:43:50.744Z,96.22
2016-08-02T02:44:50.636Z,96.61
2016-08-02T02:45:50.452Z,96.61
2016-08-02T02:46:51.531Z,95.94
2016-08-02T02:47:50.536Z,95.84
2016-08-02T02:48:50.282Z,95.84
2016-08-02T02:49:50.593Z,97.18
2016-08-02T02:50:50.342Z,97.66
2016-08-02T02:51:50.011Z,97.85
2016-08-02T02:52:50.568Z,97.94
2016-08-02T02:53:50.976Z,97.52
2016-08-02T02:54:50.831Z,98.08
2016-08-02T02:55:50.553Z,98.18
2016-08-02T02:56:50.900Z,98.57
2016-08-02T02:57:50.555Z,97.71
2016-08-02T02:58:50.592Z,97.8
2016-08-02T02:59:50.775Z,97.75
2016-08-02T03:00:50.997Z,97.47
2016-08-02T03:01:50.492Z,98.23
2016-08-02T03:02:51.643Z,98.47
2016-08-02T03:03:50.795Z,98.37
2016-08-02T03:04:50.878Z,98.18
2016-08-02T03:05:50.545Z,99.04
2016-08-02T03:06:50.967Z,98.66
2016-08-02T03:07:50.684Z,98.18
2016-08-02T03:08:50.957Z,97.99
2016-08-02T03:09:51.492Z,98.13
2016-08-02T03:10:51.504Z,97.61
2016-08-02T03:11:51.699Z,97.85
2016-08-02T03:12:50.484Z,98.04
2016-08-02T03:13:52.269Z,97.56
2016-08-02T03:14:51.571Z,97.47
2016-08-02T03:15:50.838Z,97.75
2016-08-02T03:16:50.841Z,97.66
2016-08-02T03:17:51.177Z,97.56
2016-08-02T03:18:52.310Z,98.13
2016-08-02T03:19:51.198Z,97.75
2016-08-02T03:20:51.183Z,97.47
2016-08-02T03:21:51.491Z,97.66
2016-08-02T03:22:50.665Z,98.13
2016-08-02T03:23:52.085Z,97.89
2016-08-02T03:24:51.477Z,98.18
2016-08-02T03:25:51.046Z,98.18
2016-08-02T03:26:52.082Z,98.23
2016-08-02T03:27:51.836Z,98.52
2016-08-02T03:28:51.463Z,97.75
2016-08-02T03:29:51.221Z,97.37
2016-08-02T03:30:51.204Z,97.56
2016-08-02T03:31:52.263Z,97.66
2016-08-02T03:32:51.290Z,97.28
2016-08-02T03:33:51.430Z,96.99
2016-08-02T03:34:51.647Z,96.99
2016-08-02T03:35:51.431Z,97.28
2016-08-02T03:36:52.556Z,95.94
2016-08-02T03:37:52.384Z,95.17
2016-08-02T03:38:51.592Z,95.07
2016-08-02T03:39:51.437Z,94.79
2016-08-02T03:40:52.334Z,96.22
2016-08-02T03:41:51.818Z,96.22
2016-08-02T03:42:52.106Z,95.94
2016-08-02T03:43:52.146Z,96.13
2016-08-02T03:44:52.132Z,96.22
2016-08-02T03:45:51.417Z,96.61
2016-08-02T03:46:52.292Z,96.89
2016-08-02T03:47:51.832Z,96.8
2016-08-02T03:48:51.484Z,95.65
2016-08-02T03:49:52.048Z,96.42
2016-08-02T03:50:51.851Z,95.07
2016-08-02T03:51:51.798Z,95.46
2016-08-02T03:52:52.406Z,95.36
2016-08-02T03:53:52.192Z,96.22
2016-08-02T03:54:51.436Z,95.94
2016-08-02T03:55:52.230Z,96.99
2016-08-02T03:56:53.367Z,97.18
2016-08-02T03:57:52.287Z,95.94
2016-08-02T03:58:52.195Z,97.08
2016-08-02T03:59:51.946Z,96.99
2016-08-02T04:00:52.783Z,96.42
2016-08-02T04:01:52.168Z,95.84
2016-08-02T04:02:52.712Z,95.94
2016-08-02T04:03:53.379Z,96.22
2016-08-02T04:04:53.358Z,96.13
2016-08-02T04:05:53.536Z,96.13
2016-08-02T04:06:52.266Z,96.03
2016-08-02T04:07:52.881Z,95.94
2016-08-02T04:08:52.790Z,96.03
2016-08-02T04:09:52.239Z,96.7
2016-08-02T04:10:52.857Z,96.51
2016-08-02T04:11:52.741Z,95.56
2016-08-02T04:12:52.773Z,95.84
2016-08-02T04:13:52.583Z,96.51
2016-08-02T04:14:52.829Z,96.13
2016-08-02T04:15:53.256Z,96.51
2016-08-02T04:16:52.687Z,96.61
2016-08-02T04:17:53.483Z,96.22
2016-08-02T04:18:52.225Z,96.22
2016-08-02T04:19:53.897Z,96.51
2016-08-02T04:20:52.332Z,96.22
2016-08-02T04:21:53.167Z,95.27
2016-08-02T04:22:52.169Z,94.98
2016-08-02T04:23:53.646Z,96.42
2016-08-02T04:24:53.727Z,96.22
2016-08-02T04:25:54.031Z,95.27
2016-08-02T04:26:53.196Z,94.98
2016-08-02T04:27:53.097Z,96.22
2016-08-02T04:28:53.942Z,95.94
2016-08-02T04:29:52.548Z,95.56
2016-08-02T04:30:52.882Z,96.42
2016-08-02T04:31:54.215Z,95.46
2016-08-02T04:32:52.694Z,96.03
2016-08-02T04:33:52.587Z,96.42
2016-08-02T04:34:52.896Z,95.17
2016-08-02T04:35:53.008Z,96.03
2016-08-02T04:36:53.779Z,96.22
2016-08-02T04:37:52.575Z,96.22
2016-08-02T04:38:52.898Z,96.32
2016-08-02T04:39:52.676Z,95.17
2016-08-02T04:40:52.650Z,96.03
2016-08-02T04:41:52.846Z,95.84
2016-08-02T04:42:52.609Z,94.89
2016-08-02T04:43:53.632Z,95.46
2016-08-02T04:44:53.910Z,96.42
2016-08-02T04:45:53.451Z,96.03
2016-08-02T04:46:53.572Z,96.13
2016-08-02T04:47:53.304Z,95.84
2016-08-02T04:48:52.621Z,95.94
2016-08-02T04:49:52.993Z,95.84
2016-08-02T04:50:53.287Z,96.13
2016-08-02T04:51:53.423Z,96.03
2016-08-02T04:52:54.629Z,96.03
2016-08-02T04:53:53.328Z,95.75
2016-08-02T04:54:53.061Z,95.84
2016-08-02T04:55:52.920Z,96.22
2016-08-02T04:56:53.389Z,95.84
2016-08-02T04:57:53.918Z,94.98
2016-08-02T04:58:53.833Z,96.03
2016-08-02T04:59:54.611Z,96.03
2016-08-02T05:00:54.858Z,96.22
2016-08-02T05:01:54.182Z,95.46
2016-08-02T05:02:53.706Z,95.94
2016-08-02T05:03:53.300Z,95.22
2016-08-02T05:04:54.210Z,96.22
2016-08-02T05:05:53.321Z,96.22
2016-08-02T05:06:53.496Z,96.32
2016-08-02T05:07:53.592Z,96.03
2016-08-02T05:08:53.340Z,95.17
2016-08-02T05:09:54.192Z,95.32
2016-08-02T05:10:53.691Z,95.22
2016-08-02T05:11:53.287Z,94.98
2016-08-02T05:12:54.946Z,95.7
2016-08-02T05:13:53.639Z,95.32
2016-08-02T05:14:54.193Z,95.32
2016-08-02T05:15:53.833Z,95.51
2016-08-02T05:16:54.254Z,95.27
2016-08-02T05:17:54.942Z,95.51
2016-08-02T05:18:53.616Z,95.17
2016-08-02T05:19:53.691Z,94.98
2016-08-02T05:20:54.003Z,94.98
2016-08-02T05:21:54.743Z,95.22
2016-08-02T05:22:53.761Z,95.41
2016-08-02T05:23:54.125Z,95.46
2016-08-02T05:24:53.898Z,95.36
2016-08-02T05:25:54.649Z,95.41
2016-08-02T05:26:54.027Z,95.56
2016-08-02T05:27:53.877Z,96.56
2016-08-02T05:28:54.211Z,95.65
2016-08-02T05:29:55.081Z,95.56
2016-08-02T05:30:54.154Z,95.51
2016-08-02T05:31:54.719Z,95.22
2016-08-02T05:32:54.839Z,95.46
2016-08-02T05:33:54.017Z,95.51
2016-08-02T05:34:54.044Z,95.41
2016-08-02T05:35:54.319Z,95.98
2016-08-02T05:36:55.836Z,96.27
2016-08-02T05:37:54.199Z,96.66
2016-08-02T05:38:55.102Z,95.56
2016-08-02T05:39:54.124Z,95.17
2016-08-02T05:40:54.348Z,95.46
2016-08-02T05:41:55.004Z,95.22
2016-08-02T05:42:54.992Z,94.93
2016-08-02T05:43:54.918Z,95.32
2016-08-02T05:44:54.743Z,95.03
2016-08-02T05:45:54.619Z,95.61
2016-08-02T05:46:54.914Z,95.51
2016-08-02T05:47:55.359Z,95.12
2016-08-02T05:48:54.924Z,95.03
2016-08-02T05:49:54.323Z,95.61
2016-08-02T05:50:55.536Z,95.51
2016-08-02T05:51:54.231Z,95.7
2016-08-02T05:52:54.193Z,95.12
2016-08-02T05:53:54.839Z,95.12
2016-08-02T05:54:55.086Z,95.12
2016-08-02T05:55:55.971Z,95.22
2016-08-02T05:56:54.642Z,95.51
2016-08-02T05:57:54.975Z,96.08
2016-08-02T05:58:55.227Z,95.51
2016-08-02T05:59:54.401Z,95.32
2016-08-02T06:00:54.616Z,95.41
2016-08-02T06:01:55.915Z,95.32
2016-08-02T06:03:54.430Z,95.41
2016-08-02T06:04:55.174Z,95.12
2016-08-02T06:05:54.979Z,94.74
2016-08-02T06:06:55.710Z,95.22
2016-08-02T06:07:55.094Z,94.74
2016-08-02T06:08:55.221Z,94.93
2016-08-02T06:09:55.410Z,94.65
2016-08-02T06:10:54.981Z,93.6
2016-08-02T06:11:56.085Z,94.36
2016-08-02T06:12:56.488Z,93.98
2016-08-02T06:13:56.429Z,94.17
2016-08-02T06:14:55.000Z,93.88
2016-08-02T06:15:56.534Z,93.69
2016-08-02T06:16:55.198Z,93.88
2016-08-02T06:17:56.238Z,94.74
2016-08-02T06:18:55.541Z,93.79
2016-08-02T06:19:55.500Z,94.26
2016-08-02T06:20:56.252Z,94.55
2016-08-02T06:21:55.408Z,93.79
2016-08-02T06:22:56.729Z,94.65
2016-08-02T06:23:55.633Z,94.55
2016-08-02T06:24:55.179Z,93.4
2016-08-02T06:25:56.671Z,94.46
2016-08-02T06:26:55.865Z,94.36
2016-08-02T06:27:56.322Z,94.26
2016-08-02T06:28:56.006Z,94.26
2016-08-02T06:29:55.629Z,95.12
2016-08-02T06:30:56.370Z,95.41
2016-08-02T06:31:56.520Z,95.03
2016-08-02T06:32:55.790Z,94.26
2016-08-02T06:33:55.287Z,94.55
2016-08-02T06:34:55.427Z,94.55
2016-08-02T06:35:56.031Z,94.46
2016-08-02T06:36:55.310Z,93.88
2016-08-02T06:37:55.553Z,93.69
2016-08-02T06:38:56.515Z,94.46
2016-08-02T06:39:56.550Z,93.69
2016-08-02T06:40:56.284Z,93.98
2016-08-02T06:41:55.484Z,94.36
2016-08-02T06:42:55.761Z,95.12
2016-08-02T06:43:57.054Z,95.51
2016-08-02T06:44:56.548Z,94.46
2016-08-02T06:45:56.952Z,93.69
2016-08-02T06:46:57.711Z,93.4
2016-08-02T06:47:57.065Z,93.88
2016-08-02T06:48:56.095Z,93.88
2016-08-02T06:49:57.253Z,94.84
2016-08-02T06:50:55.597Z,93.79
2016-08-02T06:51:56.121Z,94.55
2016-08-02T06:52:56.264Z,94.46
2016-08-02T06:53:56.960Z,94.17
2016-08-02T06:54:56.151Z,93.69
2016-08-02T06:55:58.047Z,94.12
2016-08-02T06:56:57.569Z,94.12
2016-08-02T06:57:55.651Z,93.35
2016-08-02T06:58:57.292Z,93.26
2016-08-02T06:59:56.081Z,93.35
2016-08-02T07:00:56.530Z,93.93
2016-08-02T07:01:56.778Z,93.45
2016-08-02T07:02:57.290Z,93.35
2016-08-02T07:03:56.326Z,92.97
2016-08-02T07:04:56.109Z,92.97
2016-08-02T07:05:56.148Z,93.07
2016-08-02T07:06:56.554Z,93.35
2016-08-02T07:07:57.218Z,93.55
2016-08-02T07:08:56.305Z,93.07
2016-08-02T07:09:56.501Z,93.45
2016-08-02T07:10:57.055Z,93.16
2016-08-02T07:11:57.369Z,93.64
2016-08-02T07:12:57.434Z,93.35
2016-08-02T07:13:57.260Z,93.64
2016-08-02T07:14:57.689Z,93.26
2016-08-02T07:15:57.247Z,93.45
2016-08-02T07:16:56.910Z,93.07
2016-08-02T07:17:57.317Z,93.07
2016-08-02T07:18:57.150Z,92.69
2016-08-02T07:19:57.368Z,93.16
2016-08-02T07:20:57.423Z,93.35
2016-08-02T07:21:56.925Z,93.07
2016-08-02T07:22:56.987Z,93.45
2016-08-02T07:23:58.046Z,94.02
2016-08-02T07:24:57.070Z,93.26
2016-08-02T07:25:57.028Z,93.45
2016-08-02T07:26:57.427Z,93.84
2016-08-02T07:27:57.748Z,93.35
2016-08-02T07:28:56.981Z,93.07
2016-08-02T07:29:57.129Z,93.35
2016-08-02T07:30:57.758Z,93.07
2016-08-02T07:31:57.129Z,93.07
2016-08-02T07:32:58.040Z,93.4
2016-08-02T07:33:56.977Z,93.26
2016-08-02T07:34:57.943Z,93.26
2016-08-02T07:35:58.319Z,93.45
2016-08-02T07:36:57.592Z,92.78
2016-08-02T07:37:57.279Z,92.88
2016-08-02T07:38:57.010Z,93.16
2016-08-02T07:47:12.080Z,93.21
2016-08-02T07:47:58.032Z,92.92
2016-08-02T07:48:58.568Z,93.12
2016-08-02T07:49:57.702Z,93.02
2016-08-02T07:50:57.550Z,93.3
2016-08-02T07:51:57.668Z,93.02
2016-08-02T07:53:12.290Z,92.35
2016-08-02T07:53:57.257Z,92.83
2016-08-02T07:55:58.035Z,93.54
2016-08-02T07:56:57.744Z,93.16
2016-08-02T07:57:57.674Z,92.35
2016-08-02T07:58:59.375Z,91.82
2016-08-02T07:59:59.181Z,91.63
2016-08-02T08:00:58.039Z,90.81
2016-08-02T08:01:58.457Z,91.77
2016-08-02T08:02:57.648Z,91.53
2016-08-02T08:03:58.518Z,92.97
2016-08-02T08:04:57.752Z,91.39
2016-08-02T08:05:58.350Z,90.72
2016-08-02T08:06:57.670Z,90.91
2016-08-02T08:07:58.707Z,90.91
2016-08-02T08:08:58.744Z,90.72
2016-08-02T08:10:58.277Z,91
2016-08-02T08:11:58.448Z,90.53
2016-08-02T08:12:58.768Z,90.05
2016-08-02T08:13:58.240Z,90.57
2016-08-02T08:14:58.546Z,89.32
2016-08-02T08:15:59.115Z,88.94
2016-08-02T08:16:58.212Z,89.51
2016-08-02T08:17:57.985Z,89.37
2016-08-02T08:18:58.034Z,89.71
2016-08-02T08:19:58.581Z,89.71
2016-08-02T08:20:59.147Z,88.94
2016-08-02T08:21:58.149Z,88.46
2016-08-02T08:22:58.110Z,88.56
2016-08-02T08:23:59.289Z,87.98
2016-08-02T08:25:59.487Z,88.84
2016-08-02T08:26:59.459Z,88.37
2016-08-02T08:27:58.629Z,87.26
2016-08-02T08:28:58.279Z,86.21
2016-08-02T08:29:59.174Z,85.92
2016-08-02T08:30:58.480Z,86.4
2016-08-02T08:31:58.278Z,86.34
2016-08-02T08:32:58.923Z,85.38
2016-08-02T08:33:58.872Z,85.14
2016-08-02T08:34:58.616Z,84.75
2016-08-02T08:35:59.638Z,85.14
2016-08-02T08:37:13.405Z,84.71
2016-08-02T08:37:59.175Z,84.27
2016-08-02T08:38:58.991Z,84.66
2016-08-02T08:40:58.751Z,84.37
2016-08-02T08:41:58.924Z,83.31
2016-08-02T08:42:59.310Z,82.93
2016-08-02T08:43:58.981Z,84.37
2016-08-02T08:44:59.875Z,83.6
2016-08-02T08:45:59.110Z,84.18
2016-08-02T08:46:59.126Z,83.03
2016-08-02T08:47:58.725Z,82.16
2016-08-02T08:49:00.160Z,82.97
2016-08-02T08:49:58.688Z,82.45
2016-08-02T08:50:59.817Z,81.49
2016-08-02T08:51:59.018Z,82.26
2016-08-02T08:52:58.830Z,81.68
2016-08-02T08:53:59.196Z,81.78
2016-08-02T08:54:59.099Z,82.16
2016-08-02T08:55:59.237Z,81.53
2016-08-02T08:57:01.239Z,82.3
2016-08-02T08:57:59.077Z,83.6
2016-08-02T08:58:59.030Z,82.54
2016-08-02T08:59:58.948Z,82.74
2016-08-02T09:00:59.335Z,82.59
2016-08-02T09:01:59.613Z,82.49
2016-08-02T09:02:59.188Z,83.36
2016-08-02T09:03:59.239Z,83.51
2016-08-02T09:04:59.194Z,84.75
2016-08-02T09:05:59.187Z,82.84
2016-08-02T09:06:59.533Z,82.45
2016-08-02T09:07:59.697Z,81.4
2016-08-02T09:09:00.206Z,81.05
2016-08-02T09:09:58.933Z,81.2
2016-08-02T09:11:00.608Z,81.1
2016-08-02T09:12:00.089Z,81.4
2016-08-02T09:12:59.426Z,81.4
2016-08-02T09:14:00.319Z,82.35
2016-08-02T09:14:59.581Z,81.87
2016-08-02T09:15:59.464Z,81.54
2016-08-02T09:16:59.514Z,81.87
2016-08-02T09:18:00.539Z,81.74
2016-08-02T09:18:59.240Z,82.31
2016-08-02T09:19:59.867Z,81.26
2016-08-02T09:21:00.279Z,81.49
2016-08-02T09:21:59.885Z,81.49
2016-08-02T09:23:00.909Z,81.49
2016-08-02T09:24:00.214Z,81.68
2016-08-02T09:25:00.572Z,81.87
2016-08-02T09:26:00.773Z,81.97
2016-08-02T09:27:00.133Z,82.07
2016-08-02T09:27:59.911Z,81.74
2016-08-02T09:28:59.666Z,81.87
2016-08-02T09:30:01.689Z,82.16
2016-08-02T09:30:59.619Z,81.4
2016-08-02T09:31:59.653Z,81.68
2016-08-02T09:32:59.867Z,82.07
2016-08-02T09:34:00.944Z,82.35
2016-08-02T09:34:59.969Z,82.35
2016-08-02T09:36:01.239Z,82.21
2016-08-02T09:36:59.895Z,82.35
2016-08-02T09:38:01.182Z,80.82
2016-08-02T09:39:00.626Z,80.82
2016-08-02T09:40:01.565Z,80.53
2016-08-02T09:41:00.169Z,79.19
2016-08-02T09:42:00.016Z,79.42
2016-08-02T09:43:01.086Z,79.13
2016-08-02T09:44:00.292Z,79.61
2016-08-02T09:45:00.361Z,79.57
2016-08-02T09:46:01.008Z,78.55
2016-08-02T09:47:00.355Z,78.8
2016-08-02T09:48:00.269Z,77.69
2016-08-02T09:49:00.480Z,78.59
2016-08-02T09:50:00.601Z,78.45
2016-08-02T09:51:01.084Z,78.17
2016-08-02T09:52:01.983Z,78.61
2016-08-02T09:53:00.439Z,77.69
2016-08-02T09:54:00.539Z,77.98
2016-08-02T09:55:01.696Z,77.63
2016-08-02T09:56:00.976Z,78.11
2016-08-02T09:57:00.470Z,78.3
2016-08-02T09:58:00.902Z,78.69
2016-08-02T09:59:01.133Z,78.69
2016-08-02T10:00:00.956Z,78.55
2016-08-02T10:01:01.364Z,77.73
2016-08-02T10:02:01.478Z,76.19
2016-08-02T10:03:00.774Z,74.6
2016-08-02T10:04:01.711Z,74.05
2016-08-02T10:05:01.574Z,74.37
2016-08-02T10:06:01.136Z,74.6
2016-08-02T10:07:02.159Z,73.77
2016-08-02T10:08:00.756Z,74.15
2016-08-02T10:09:01.156Z,74.05
2016-08-02T10:10:02.192Z,74.79
2016-08-02T10:11:00.988Z,74.4
2016-08-02T10:12:01.393Z,73.19
2016-08-02T10:13:01.258Z,71.84
2016-08-02T10:14:00.958Z,72.38
2016-08-02T10:15:01.862Z,73.15
2016-08-02T10:16:01.452Z,73.38
2016-08-02T10:17:01.432Z,72.9
2016-08-02T10:18:01.312Z,72.42
2016-08-02T10:19:02.218Z,72.42
2016-08-02T10:20:01.103Z,73.44
2016-08-02T10:21:01.170Z,73.15
2016-08-02T10:22:01.631Z,72.8
2016-08-02T10:23:02.127Z,72.42
2016-08-02T10:24:02.138Z,73.19
2016-08-02T10:25:00.990Z,73.57
2016-08-02T10:26:01.228Z,74.21
2016-08-02T10:27:02.309Z,74.88
2016-08-02T10:28:02.643Z,74.21
2016-08-02T10:29:01.474Z,74.73
2016-08-02T10:30:03.305Z,74.79
2016-08-02T10:31:02.012Z,75.56
2016-08-02T10:32:02.266Z,74.3
2016-08-02T10:33:02.250Z,74.25
2016-08-02T10:34:01.479Z,73.28
2016-08-02T10:35:02.234Z,73.38
2016-08-02T10:36:02.218Z,72.8
2016-08-02T10:37:02.594Z,72.42
2016-08-02T10:38:02.230Z,72.8
2016-08-02T10:39:03.155Z,72.58
2016-08-02T10:40:02.168Z,72.96
2016-08-02T10:41:01.828Z,73.67
2016-08-02T10:42:01.906Z,72.67
2016-08-02T10:43:01.568Z,73.15
2016-08-02T10:44:02.494Z,72.96
2016-08-02T10:45:02.753Z,73.73
2016-08-02T10:46:02.847Z,73.06
2016-08-02T10:47:01.893Z,73.15
2016-08-02T10:48:01.876Z,72.09
2016-08-02T10:49:02.314Z,70.72
2016-08-02T10:50:02.125Z,67.29
2016-08-02T10:51:02.314Z,66.49
2016-08-02T10:52:02.422Z,68.45
2016-08-02T10:53:02.413Z,66.59
2016-08-02T10:54:02.673Z,64.24
2016-08-02T10:55:02.658Z,64.72
2016-08-02T10:56:02.105Z,64.72
2016-08-02T10:57:03.260Z,63.67
2016-08-02T10:58:02.813Z,63.76
2016-08-02T10:59:02.133Z,64.59
2016-08-02T11:00:03.924Z,65.91
2016-08-02T11:01:02.624Z,65.53
2016-08-02T11:02:03.353Z,66.01
2016-08-02T11:03:03.267Z,67.46
2016-08-02T11:04:02.922Z,66.97
2016-08-02T11:05:02.942Z,67.46
2016-08-02T11:06:02.934Z,66.69
2016-08-02T11:07:03.457Z,66.07
2016-08-02T11:08:03.759Z,66.65
2016-08-02T11:09:02.922Z,66.11
2016-08-02T11:10:03.169Z,66.01
2016-08-02T11:11:02.645Z,66.97
2016-08-02T11:12:03.055Z,67.65
2016-08-02T11:13:03.484Z,67.07
2016-08-02T11:14:03.453Z,66.65
2016-08-02T11:15:02.880Z,66.62
2016-08-02T11:16:03.589Z,67.52
2016-08-02T11:17:03.479Z,67.49
2016-08-02T11:18:03.668Z,66.85
2016-08-02T11:19:03.731Z,67.19
2016-08-02T11:20:02.758Z,67.45
2016-08-02T11:21:03.848Z,67.29
2016-08-02T11:22:03.156Z,66.81
2016-08-02T11:23:03.738Z,66.65
2016-08-02T11:24:02.964Z,65.98
2016-08-02T11:25:03.990Z,66.42
2016-08-02T11:26:02.915Z,67.39
2016-08-02T11:27:03.696Z,65.5
2016-08-02T11:28:03.346Z,64.95
2016-08-02T11:29:03.630Z,65.95
2016-08-02T11:30:18.142Z,65.69
2016-08-02T11:31:17.872Z,65.98
2016-08-02T11:32:17.711Z,65.43
2016-08-02T11:33:17.718Z,66.17
2016-08-02T11:34:18.213Z,65.53
2016-08-02T11:35:18.264Z,65.3
2016-08-02T11:36:03.711Z,67.58
2016-08-02T11:37:04.374Z,67.49
2016-08-02T11:38:04.344Z,67.16
2016-08-02T11:39:04.190Z,67.68
2016-08-02T11:40:03.591Z,67.45
2016-08-02T11:41:03.775Z,67.9
2016-08-02T11:42:03.344Z,69.06
2016-08-02T11:43:03.774Z,70.07
2016-08-02T11:44:03.683Z,70.81
2016-08-02T11:45:04.301Z,69.5
2016-08-02T11:46:04.030Z,68.44
2016-08-02T11:47:05.269Z,68.44
2016-08-02T11:48:03.626Z,67.86
2016-08-02T11:49:03.698Z,66.94
2016-08-02T11:50:04.663Z,67.38
2016-08-02T11:51:04.797Z,67.32
2016-08-02T11:52:03.850Z,66.3
2016-08-02T11:53:04.093Z,66.68
2016-08-02T11:54:04.487Z,65.81
2016-08-02T11:55:04.442Z,66.62
2016-08-02T11:56:04.171Z,65.17
2016-08-02T11:57:04.293Z,65.81
2016-08-02T11:58:04.653Z,66.97
2016-08-02T11:59:04.761Z,67.26
2016-08-02T12:00:04.575Z,68.09
2016-08-02T12:01:04.100Z,66.74
2016-08-02T12:02:05.078Z,66.88
2016-08-02T12:03:05.009Z,66.01
2016-08-02T12:04:05.075Z,66.58
2016-08-02T12:05:04.144Z,65.24
2016-08-02T12:06:04.445Z,64.5
2016-08-02T12:07:04.537Z,64.05
2016-08-02T12:08:05.316Z,64.15
2016-08-02T12:09:05.270Z,64.25
2016-08-02T12:10:04.824Z,65.01
2016-08-02T12:11:05.397Z,67
2016-08-02T12:12:05.676Z,67.16
2016-08-02T12:13:05.441Z,66.49
2016-08-02T12:14:04.888Z,65.88
2016-08-02T12:15:05.149Z,66.14
2016-08-02T12:16:05.464Z,65.2
2016-08-02T12:17:04.616Z,63.67
2016-08-02T12:18:05.406Z,64.43
2016-08-02T12:19:04.832Z,64.02
2016-08-02T12:20:04.962Z,65.91
2016-08-02T12:21:04.797Z,64.69
2016-08-02T12:22:05.242Z,65.2
2016-08-02T12:23:06.755Z,65.17
2016-08-02T12:24:05.904Z,65.75
2016-08-02T12:25:05.290Z,66.49
2016-08-02T12:26:05.155Z,65.37
2016-08-02T12:27:06.093Z,65.27
2016-08-02T12:28:07.043Z,66.49
2016-08-02T12:29:05.310Z,67.35
2016-08-02T12:30:05.277Z,68.76
2016-08-02T12:31:05.059Z,69.02
2016-08-02T12:32:06.635Z,70.27
2016-08-02T12:33:05.387Z,71.17
2016-08-02T12:34:06.102Z,70.98
2016-08-02T12:35:05.055Z,70.34
2016-08-02T12:36:05.156Z,69.44
2016-08-02T12:37:06.459Z,68.99
2016-08-02T12:38:05.987Z,69.28
2016-08-02T12:39:05.163Z,69.24
2016-08-02T12:40:06.717Z,66.88
2016-08-02T12:41:06.585Z,66.74
2016-08-02T12:42:06.452Z,66.58
2016-08-02T12:43:05.423Z,65.46
2016-08-02T12:44:06.504Z,65.33
2016-08-02T12:45:05.554Z,65.59
2016-08-02T12:46:06.107Z,64.15
2016-08-02T12:47:05.290Z,63.57
2016-08-02T12:48:05.716Z,63.76
2016-08-02T12:49:06.286Z,63.28
2016-08-02T12:50:05.585Z,62.63
2016-08-02T12:51:05.565Z,63.02
2016-08-02T12:52:05.616Z,62.93
2016-08-02T12:53:05.573Z,63.54
2016-08-02T12:54:06.240Z,64.05
2016-08-02T12:55:05.957Z,62.73
2016-08-02T12:56:06.051Z,62.45
2016-08-02T12:57:06.493Z,63.09
2016-08-02T12:58:05.841Z,64.34
2016-08-02T12:59:06.815Z,64.02
2016-08-02T13:00:06.053Z,64.89
2016-08-02T13:01:05.710Z,65.27
2016-08-02T13:02:05.935Z,65.17
2016-08-02T13:03:07.855Z,65.98
2016-08-02T13:04:06.334Z,65.75
2016-08-02T13:05:06.086Z,66.62
2016-08-02T13:06:07.300Z,66.14
2016-08-02T13:07:06.349Z,65.56
2016-08-02T13:08:06.865Z,65.59
2016-08-02T13:09:06.984Z,64.53
2016-08-02T13:10:06.202Z,65.78
2016-08-02T13:12:06.252Z,67.23
2016-08-02T13:13:07.172Z,67.61
2016-08-02T13:14:06.738Z,65.78
2016-08-02T13:15:06.819Z,65.3